sensor_id;sensor_type;location;lat;lon;timestamp;P1;durP1;ratioP1;P2;durP2;ratioP2
52432;SDS011;38352;53.244;6.594;2023-08-08T00:01:25;7.43;;;2.75;;
52432;SDS011;38352;53.244;6.594;2023-08-08T00:03:51;7.75;;;3.10;;
52432;SDS011;38352;53.244;6.594;2023-08-08T00:06:17;7.38;;;3.38;;
52432;SDS011;38352;53.244;6.594;2023-08-08T00:08:43;6.85;;;2.70;;
52432;SDS011;38352;53.244;6.594;2023-08-08T00:11:09;8.52;;;3.65;;
52432;SDS011;38352;53.244;6.594;2023-08-08T00:13:35;5.32;;;2.70;;
52432;SDS011;38352;53.244;6.594;2023-08-08T00:16:02;8.25;;;3.17;;
52432;SDS011;38352;53.244;6.594;2023-08-08T00:18:28;6.05;;;3.33;;
52432;SDS011;38352;53.244;6.594;2023-08-08T00:20:54;5.68;;;2.60;;
52432;SDS011;38352;53.244;6.594;2023-08-08T00:23:20;6.30;;;2.97;;
52432;SDS011;38352;53.244;6.594;2023-08-08T00:25:47;7.65;;;2.70;;
52432;SDS011;38352;53.244;6.594;2023-08-08T00:28:16;9.60;;;3.05;;
52432;SDS011;38352;53.244;6.594;2023-08-08T00:30:42;7.13;;;2.90;;
52432;SDS011;38352;53.244;6.594;2023-08-08T00:33:08;6.65;;;2.78;;
52432;SDS011;38352;53.244;6.594;2023-08-08T00:35:35;6.18;;;2.92;;
52432;SDS011;38352;53.244;6.594;2023-08-08T00:38:01;6.72;;;3.03;;
52432;SDS011;38352;53.244;6.594;2023-08-08T00:40:27;9.05;;;3.00;;
52432;SDS011;38352;53.244;6.594;2023-08-08T00:42:53;6.72;;;2.90;;
52432;SDS011;38352;53.244;6.594;2023-08-08T00:45:19;6.50;;;2.83;;
52432;SDS011;38352;53.244;6.594;2023-08-08T00:47:45;8.25;;;3.00;;
52432;SDS011;38352;53.244;6.594;2023-08-08T00:50:11;6.65;;;2.90;;
52432;SDS011;38352;53.244;6.594;2023-08-08T00:52:38;11.73;;;2.88;;
52432;SDS011;38352;53.244;6.594;2023-08-08T00:55:05;6.30;;;2.92;;
52432;SDS011;38352;53.244;6.594;2023-08-08T00:57:31;6.78;;;3.03;;
52432;SDS011;38352;53.244;6.594;2023-08-08T00:59:57;9.73;;;3.65;;
52432;SDS011;38352;53.244;6.594;2023-08-08T01:02:23;6.82;;;3.58;;
52432;SDS011;38352;53.244;6.594;2023-08-08T01:04:49;7.05;;;3.10;;
52432;SDS011;38352;53.244;6.594;2023-08-08T01:07:20;5.72;;;3.60;;
52432;SDS011;38352;53.244;6.594;2023-08-08T01:09:50;11.82;;;3.80;;
52432;SDS011;38352;53.244;6.594;2023-08-08T01:12:18;9.48;;;3.33;;
52432;SDS011;38352;53.244;6.594;2023-08-08T01:14:45;9.55;;;3.08;;
52432;SDS011;38352;53.244;6.594;2023-08-08T01:17:11;7.82;;;3.00;;
52432;SDS011;38352;53.244;6.594;2023-08-08T01:19:37;5.85;;;3.20;;
52432;SDS011;38352;53.244;6.594;2023-08-08T01:22:04;7.70;;;3.65;;
52432;SDS011;38352;53.244;6.594;2023-08-08T01:24:32;7.63;;;3.00;;
52432;SDS011;38352;53.244;6.594;2023-08-08T01:27:02;6.10;;;3.40;;
52432;SDS011;38352;53.244;6.594;2023-08-08T01:29:28;8.18;;;3.42;;
52432;SDS011;38352;53.244;6.594;2023-08-08T01:31:54;5.85;;;2.80;;
52432;SDS011;38352;53.244;6.594;2023-08-08T01:34:20;7.70;;;3.10;;
52432;SDS011;38352;53.244;6.594;2023-08-08T01:36:57;5.43;;;3.03;;
52432;SDS011;38352;53.244;6.594;2023-08-08T01:39:26;7.13;;;3.25;;
52432;SDS011;38352;53.244;6.594;2023-08-08T01:41:54;8.90;;;2.75;;
52432;SDS011;38352;53.244;6.594;2023-08-08T01:44:20;10.57;;;3.05;;
52432;SDS011;38352;53.244;6.594;2023-08-08T01:46:48;10.23;;;3.20;;
52432;SDS011;38352;53.244;6.594;2023-08-08T01:49:14;8.82;;;3.38;;
52432;SDS011;38352;53.244;6.594;2023-08-08T01:51:40;11.20;;;3.17;;
52432;SDS011;38352;53.244;6.594;2023-08-08T01:54:07;6.03;;;3.08;;
52432;SDS011;38352;53.244;6.594;2023-08-08T01:56:33;5.93;;;2.83;;
52432;SDS011;38352;53.244;6.594;2023-08-08T01:58:59;8.63;;;3.10;;
52432;SDS011;38352;53.244;6.594;2023-08-08T02:01:25;6.95;;;2.65;;
52432;SDS011;38352;53.244;6.594;2023-08-08T02:03:51;7.10;;;3.13;;
52432;SDS011;38352;53.244;6.594;2023-08-08T02:06:17;9.13;;;2.90;;
52432;SDS011;38352;53.244;6.594;2023-08-08T02:08:44;5.20;;;2.88;;
52432;SDS011;38352;53.244;6.594;2023-08-08T02:11:10;8.32;;;3.10;;
52432;SDS011;38352;53.244;6.594;2023-08-08T02:13:36;7.30;;;3.28;;
52432;SDS011;38352;53.244;6.594;2023-08-08T02:16:02;6.82;;;3.20;;
52432;SDS011;38352;53.244;6.594;2023-08-08T02:18:28;8.98;;;3.30;;
52432;SDS011;38352;53.244;6.594;2023-08-08T02:20:55;6.90;;;2.78;;
52432;SDS011;38352;53.244;6.594;2023-08-08T02:23:21;8.30;;;3.15;;
52432;SDS011;38352;53.244;6.594;2023-08-08T02:25:47;8.32;;;2.90;;
52432;SDS011;38352;53.244;6.594;2023-08-08T02:28:13;6.45;;;3.35;;
52432;SDS011;38352;53.244;6.594;2023-08-08T02:30:39;6.43;;;2.70;;
52432;SDS011;38352;53.244;6.594;2023-08-08T02:33:05;7.53;;;3.13;;
52432;SDS011;38352;53.244;6.594;2023-08-08T02:35:31;8.75;;;3.28;;
52432;SDS011;38352;53.244;6.594;2023-08-08T02:37:57;8.07;;;3.78;;
52432;SDS011;38352;53.244;6.594;2023-08-08T02:47:45;7.50;;;3.70;;
52432;SDS011;38352;53.244;6.594;2023-08-08T02:50:11;8.13;;;3.20;;
52432;SDS011;38352;53.244;6.594;2023-08-08T02:52:37;7.88;;;3.08;;
52432;SDS011;38352;53.244;6.594;2023-08-08T02:55:04;6.93;;;2.70;;
52432;SDS011;38352;53.244;6.594;2023-08-08T02:57:30;8.45;;;3.08;;
52432;SDS011;38352;53.244;6.594;2023-08-08T02:59:56;6.60;;;2.40;;
52432;SDS011;38352;53.244;6.594;2023-08-08T03:02:22;6.82;;;2.78;;
52432;SDS011;38352;53.244;6.594;2023-08-08T03:04:49;4.85;;;2.83;;
52432;SDS011;38352;53.244;6.594;2023-08-08T03:07:18;9.20;;;3.15;;
52432;SDS011;38352;53.244;6.594;2023-08-08T03:09:44;6.72;;;2.50;;
52432;SDS011;38352;53.244;6.594;2023-08-08T03:12:12;8.90;;;2.53;;
52432;SDS011;38352;53.244;6.594;2023-08-08T03:14:38;10.15;;;3.05;;
52432;SDS011;38352;53.244;6.594;2023-08-08T03:17:04;12.80;;;3.00;;
52432;SDS011;38352;53.244;6.594;2023-08-08T03:19:30;6.22;;;2.97;;
52432;SDS011;38352;53.244;6.594;2023-08-08T03:21:56;6.20;;;2.58;;
52432;SDS011;38352;53.244;6.594;2023-08-08T03:24:28;4.35;;;2.40;;
52432;SDS011;38352;53.244;6.594;2023-08-08T03:26:54;7.22;;;2.65;;
52432;SDS011;38352;53.244;6.594;2023-08-08T03:29:24;8.35;;;2.70;;
52432;SDS011;38352;53.244;6.594;2023-08-08T03:31:50;5.15;;;2.35;;
52432;SDS011;38352;53.244;6.594;2023-08-08T03:34:16;10.63;;;2.30;;
52432;SDS011;38352;53.244;6.594;2023-08-08T03:36:42;13.68;;;3.53;;
52432;SDS011;38352;53.244;6.594;2023-08-08T03:39:08;7.18;;;2.33;;
52432;SDS011;38352;53.244;6.594;2023-08-08T03:41:35;6.10;;;2.85;;
52432;SDS011;38352;53.244;6.594;2023-08-08T03:44:02;3.97;;;2.00;;
52432;SDS011;38352;53.244;6.594;2023-08-08T03:46:28;5.80;;;2.00;;
52432;SDS011;38352;53.244;6.594;2023-08-08T03:48:54;5.22;;;2.20;;
52432;SDS011;38352;53.244;6.594;2023-08-08T03:51:21;6.63;;;2.20;;
52432;SDS011;38352;53.244;6.594;2023-08-08T03:53:47;8.07;;;2.05;;
52432;SDS011;38352;53.244;6.594;2023-08-08T03:56:13;5.45;;;1.83;;
52432;SDS011;38352;53.244;6.594;2023-08-08T03:58:39;5.70;;;2.03;;
52432;SDS011;38352;53.244;6.594;2023-08-08T04:01:06;6.78;;;2.00;;
52432;SDS011;38352;53.244;6.594;2023-08-08T04:03:32;7.00;;;1.83;;
52432;SDS011;38352;53.244;6.594;2023-08-08T04:05:59;6.57;;;1.80;;
52432;SDS011;38352;53.244;6.594;2023-08-08T04:08:25;4.10;;;1.90;;
52432;SDS011;38352;53.244;6.594;2023-08-08T04:10:54;4.80;;;1.80;;
52432;SDS011;38352;53.244;6.594;2023-08-08T04:13:21;5.15;;;1.88;;
52432;SDS011;38352;53.244;6.594;2023-08-08T04:15:47;4.22;;;1.90;;
52432;SDS011;38352;53.244;6.594;2023-08-08T04:18:13;6.22;;;2.10;;
52432;SDS011;38352;53.244;6.594;2023-08-08T04:20:42;6.78;;;1.65;;
52432;SDS011;38352;53.244;6.594;2023-08-08T04:23:08;7.22;;;1.95;;
52432;SDS011;38352;53.244;6.594;2023-08-08T04:25:37;8.32;;;1.70;;
52432;SDS011;38352;53.244;6.594;2023-08-08T04:28:06;4.05;;;1.70;;
52432;SDS011;38352;53.244;6.594;2023-08-08T04:30:38;8.73;;;2.30;;
52432;SDS011;38352;53.244;6.594;2023-08-08T04:33:10;5.57;;;1.73;;
52432;SDS011;38352;53.244;6.594;2023-08-08T04:35:36;4.85;;;1.90;;
52432;SDS011;38352;53.244;6.594;2023-08-08T04:38:03;8.30;;;2.10;;
52432;SDS011;38352;53.244;6.594;2023-08-08T04:40:29;9.07;;;1.95;;
52432;SDS011;38352;53.244;6.594;2023-08-08T04:42:56;5.75;;;1.75;;
52432;SDS011;38352;53.244;6.594;2023-08-08T04:45:24;6.25;;;2.17;;
52432;SDS011;38352;53.244;6.594;2023-08-08T04:47:54;6.70;;;2.17;;
52432;SDS011;38352;53.244;6.594;2023-08-08T04:50:21;7.35;;;1.70;;
52432;SDS011;38352;53.244;6.594;2023-08-08T04:52:47;5.65;;;1.60;;
52432;SDS011;38352;53.244;6.594;2023-08-08T04:55:16;4.68;;;1.50;;
52432;SDS011;38352;53.244;6.594;2023-08-08T04:57:42;4.43;;;1.80;;
52432;SDS011;38352;53.244;6.594;2023-08-08T05:00:11;3.25;;;1.23;;
52432;SDS011;38352;53.244;6.594;2023-08-08T05:02:37;6.35;;;1.70;;
52432;SDS011;38352;53.244;6.594;2023-08-08T05:05:06;6.57;;;1.80;;
52432;SDS011;38352;53.244;6.594;2023-08-08T05:07:35;5.35;;;1.88;;
52432;SDS011;38352;53.244;6.594;2023-08-08T05:10:17;4.07;;;1.58;;
52432;SDS011;38352;53.244;6.594;2023-08-08T05:12:43;5.47;;;1.80;;
52432;SDS011;38352;53.244;6.594;2023-08-08T05:15:15;5.28;;;2.05;;
52432;SDS011;38352;53.244;6.594;2023-08-08T05:17:42;5.65;;;1.60;;
52432;SDS011;38352;53.244;6.594;2023-08-08T05:20:08;3.72;;;1.50;;
52432;SDS011;38352;53.244;6.594;2023-08-08T05:22:35;7.13;;;2.03;;
52432;SDS011;38352;53.244;6.594;2023-08-08T05:25:01;6.82;;;1.40;;
52432;SDS011;38352;53.244;6.594;2023-08-08T05:27:30;11.07;;;2.20;;
52432;SDS011;38352;53.244;6.594;2023-08-08T05:29:56;7.45;;;2.78;;
52432;SDS011;38352;53.244;6.594;2023-08-08T05:32:24;4.78;;;1.95;;
52432;SDS011;38352;53.244;6.594;2023-08-08T05:34:50;4.38;;;1.50;;
52432;SDS011;38352;53.244;6.594;2023-08-08T05:37:17;4.50;;;1.27;;
52432;SDS011;38352;53.244;6.594;2023-08-08T05:39:43;8.93;;;2.00;;
52432;SDS011;38352;53.244;6.594;2023-08-08T05:42:10;8.93;;;1.70;;
52432;SDS011;38352;53.244;6.594;2023-08-08T05:44:36;7.07;;;1.95;;
52432;SDS011;38352;53.244;6.594;2023-08-08T05:47:02;8.63;;;1.90;;
52432;SDS011;38352;53.244;6.594;2023-08-08T05:49:31;4.93;;;1.60;;
52432;SDS011;38352;53.244;6.594;2023-08-08T05:51:57;4.82;;;2.10;;
52432;SDS011;38352;53.244;6.594;2023-08-08T05:54:26;8.32;;;2.00;;
52432;SDS011;38352;53.244;6.594;2023-08-08T05:56:53;10.77;;;2.33;;
52432;SDS011;38352;53.244;6.594;2023-08-08T05:59:19;7.03;;;2.17;;
52432;SDS011;38352;53.244;6.594;2023-08-08T06:01:45;7.53;;;1.83;;
52432;SDS011;38352;53.244;6.594;2023-08-08T06:04:12;7.25;;;1.80;;
52432;SDS011;38352;53.244;6.594;2023-08-08T06:06:39;4.43;;;2.00;;
52432;SDS011;38352;53.244;6.594;2023-08-08T06:09:05;9.88;;;1.85;;
52432;SDS011;38352;53.244;6.594;2023-08-08T06:11:33;7.55;;;2.42;;
52432;SDS011;38352;53.244;6.594;2023-08-08T06:14:00;6.28;;;1.73;;
52432;SDS011;38352;53.244;6.594;2023-08-08T06:16:26;6.15;;;2.15;;
52432;SDS011;38352;53.244;6.594;2023-08-08T06:18:52;6.97;;;1.98;;
52432;SDS011;38352;53.244;6.594;2023-08-08T06:21:18;5.00;;;1.92;;
52432;SDS011;38352;53.244;6.594;2023-08-08T06:23:44;5.43;;;2.00;;
52432;SDS011;38352;53.244;6.594;2023-08-08T06:26:14;10.35;;;2.00;;
52432;SDS011;38352;53.244;6.594;2023-08-08T06:28:43;7.32;;;1.58;;
52432;SDS011;38352;53.244;6.594;2023-08-08T06:31:09;5.88;;;1.65;;
52432;SDS011;38352;53.244;6.594;2023-08-08T06:33:35;4.38;;;1.90;;
52432;SDS011;38352;53.244;6.594;2023-08-08T06:36:02;6.30;;;1.60;;
52432;SDS011;38352;53.244;6.594;2023-08-08T06:38:28;4.63;;;1.63;;
52432;SDS011;38352;53.244;6.594;2023-08-08T06:41:02;7.93;;;2.17;;
52432;SDS011;38352;53.244;6.594;2023-08-08T06:43:29;8.55;;;1.80;;
52432;SDS011;38352;53.244;6.594;2023-08-08T06:45:58;5.32;;;1.70;;
52432;SDS011;38352;53.244;6.594;2023-08-08T06:48:26;5.60;;;1.52;;
52432;SDS011;38352;53.244;6.594;2023-08-08T06:50:55;3.75;;;1.45;;
52432;SDS011;38352;53.244;6.594;2023-08-08T06:53:26;3.67;;;1.80;;
52432;SDS011;38352;53.244;6.594;2023-08-08T06:55:55;7.35;;;1.65;;
52432;SDS011;38352;53.244;6.594;2023-08-08T06:58:21;8.50;;;1.67;;
52432;SDS011;38352;53.244;6.594;2023-08-08T07:00:48;5.30;;;1.45;;
52432;SDS011;38352;53.244;6.594;2023-08-08T07:03:17;6.28;;;1.20;;
52432;SDS011;38352;53.244;6.594;2023-08-08T07:05:43;7.65;;;1.20;;
52432;SDS011;38352;53.244;6.594;2023-08-08T07:08:09;3.55;;;1.30;;
52432;SDS011;38352;53.244;6.594;2023-08-08T07:10:40;8.05;;;1.80;;
52432;SDS011;38352;53.244;6.594;2023-08-08T07:13:09;4.82;;;1.55;;
52432;SDS011;38352;53.244;6.594;2023-08-08T07:15:35;3.80;;;1.73;;
52432;SDS011;38352;53.244;6.594;2023-08-08T07:18:02;4.18;;;1.65;;
52432;SDS011;38352;53.244;6.594;2023-08-08T07:20:28;6.45;;;1.42;;
52432;SDS011;38352;53.244;6.594;2023-08-08T07:22:54;8.35;;;1.60;;
52432;SDS011;38352;53.244;6.594;2023-08-08T07:25:24;3.33;;;1.42;;
52432;SDS011;38352;53.244;6.594;2023-08-08T07:27:50;5.65;;;1.10;;
52432;SDS011;38352;53.244;6.594;2023-08-08T07:30:16;4.20;;;1.25;;
52432;SDS011;38352;53.244;6.594;2023-08-08T07:32:42;8.13;;;1.20;;
52432;SDS011;38352;53.244;6.594;2023-08-08T07:35:08;5.55;;;1.42;;
52432;SDS011;38352;53.244;6.594;2023-08-08T07:37:38;6.00;;;1.38;;
52432;SDS011;38352;53.244;6.594;2023-08-08T07:40:38;6.75;;;1.30;;
52432;SDS011;38352;53.244;6.594;2023-08-08T07:42:57;7.50;;;1.45;;
52432;SDS011;38352;53.244;6.594;2023-08-08T07:45:23;9.77;;;1.60;;
52432;SDS011;38352;53.244;6.594;2023-08-08T07:47:49;4.25;;;1.23;;
52432;SDS011;38352;53.244;6.594;2023-08-08T07:50:22;3.08;;;1.00;;
52432;SDS011;38352;53.244;6.594;2023-08-08T07:52:50;5.05;;;1.50;;
52432;SDS011;38352;53.244;6.594;2023-08-08T07:55:16;4.50;;;1.17;;
52432;SDS011;38352;53.244;6.594;2023-08-08T07:57:42;5.72;;;2.05;;
52432;SDS011;38352;53.244;6.594;2023-08-08T08:00:08;8.93;;;1.60;;
52432;SDS011;38352;53.244;6.594;2023-08-08T08:02:41;8.40;;;1.80;;
52432;SDS011;38352;53.244;6.594;2023-08-08T08:05:08;6.72;;;1.52;;
52432;SDS011;38352;53.244;6.594;2023-08-08T08:07:38;4.00;;;1.40;;
52432;SDS011;38352;53.244;6.594;2023-08-08T08:10:06;4.75;;;1.20;;
52432;SDS011;38352;53.244;6.594;2023-08-08T08:12:34;4.88;;;1.25;;
52432;SDS011;38352;53.244;6.594;2023-08-08T08:15:00;5.03;;;1.17;;
52432;SDS011;38352;53.244;6.594;2023-08-08T08:17:27;6.25;;;1.23;;
52432;SDS011;38352;53.244;6.594;2023-08-08T08:19:53;7.78;;;1.88;;
52432;SDS011;38352;53.244;6.594;2023-08-08T08:22:20;6.15;;;1.42;;
52432;SDS011;38352;53.244;6.594;2023-08-08T08:24:46;7.95;;;1.50;;
52432;SDS011;38352;53.244;6.594;2023-08-08T08:27:12;7.82;;;1.63;;
52432;SDS011;38352;53.244;6.594;2023-08-08T08:29:39;4.75;;;1.40;;
52432;SDS011;38352;53.244;6.594;2023-08-08T08:32:05;5.72;;;2.15;;
52432;SDS011;38352;53.244;6.594;2023-08-08T08:34:31;9.07;;;2.03;;
52432;SDS011;38352;53.244;6.594;2023-08-08T08:36:57;5.40;;;1.30;;
52432;SDS011;38352;53.244;6.594;2023-08-08T08:39:23;7.60;;;1.77;;
52432;SDS011;38352;53.244;6.594;2023-08-08T08:41:52;6.90;;;1.40;;
52432;SDS011;38352;53.244;6.594;2023-08-08T08:44:19;5.35;;;1.25;;
52432;SDS011;38352;53.244;6.594;2023-08-08T08:46:47;6.32;;;1.98;;
52432;SDS011;38352;53.244;6.594;2023-08-08T08:49:14;6.97;;;1.70;;
52432;SDS011;38352;53.244;6.594;2023-08-08T08:51:40;6.68;;;1.27;;
52432;SDS011;38352;53.244;6.594;2023-08-08T08:54:06;6.55;;;1.40;;
52432;SDS011;38352;53.244;6.594;2023-08-08T08:56:32;8.35;;;1.60;;
52432;SDS011;38352;53.244;6.594;2023-08-08T08:58:59;9.13;;;1.92;;
52432;SDS011;38352;53.244;6.594;2023-08-08T09:01:26;8.23;;;1.50;;
52432;SDS011;38352;53.244;6.594;2023-08-08T09:03:53;6.75;;;1.77;;
52432;SDS011;38352;53.244;6.594;2023-08-08T09:06:19;8.55;;;1.85;;
52432;SDS011;38352;53.244;6.594;2023-08-08T09:08:46;6.28;;;1.85;;
52432;SDS011;38352;53.244;6.594;2023-08-08T09:11:12;11.05;;;1.67;;
52432;SDS011;38352;53.244;6.594;2023-08-08T09:13:39;8.10;;;1.63;;
52432;SDS011;38352;53.244;6.594;2023-08-08T09:16:08;3.50;;;1.23;;
52432;SDS011;38352;53.244;6.594;2023-08-08T09:18:37;6.32;;;1.25;;
52432;SDS011;38352;53.244;6.594;2023-08-08T09:21:04;4.35;;;1.02;;
52432;SDS011;38352;53.244;6.594;2023-08-08T09:23:30;6.63;;;1.40;;
52432;SDS011;38352;53.244;6.594;2023-08-08T09:25:56;5.90;;;1.30;;
52432;SDS011;38352;53.244;6.594;2023-08-08T09:28:22;5.05;;;1.75;;
52432;SDS011;38352;53.244;6.594;2023-08-08T09:30:48;7.10;;;1.42;;
52432;SDS011;38352;53.244;6.594;2023-08-08T09:33:17;6.55;;;1.40;;
52432;SDS011;38352;53.244;6.594;2023-08-08T09:35:43;4.68;;;1.10;;
52432;SDS011;38352;53.244;6.594;2023-08-08T09:38:10;4.15;;;1.50;;
52432;SDS011;38352;53.244;6.594;2023-08-08T09:40:36;6.70;;;1.85;;
52432;SDS011;38352;53.244;6.594;2023-08-08T09:43:03;7.78;;;2.53;;
52432;SDS011;38352;53.244;6.594;2023-08-08T09:45:38;3.13;;;0.98;;
52432;SDS011;38352;53.244;6.594;2023-08-08T09:48:07;5.82;;;1.10;;
52432;SDS011;38352;53.244;6.594;2023-08-08T09:50:33;4.15;;;1.20;;
52432;SDS011;38352;53.244;6.594;2023-08-08T09:53:00;7.57;;;1.08;;
52432;SDS011;38352;53.244;6.594;2023-08-08T09:55:27;4.15;;;1.50;;
52432;SDS011;38352;53.244;6.594;2023-08-08T09:57:54;4.18;;;1.45;;
52432;SDS011;38352;53.244;6.594;2023-08-08T10:00:24;5.55;;;1.63;;
52432;SDS011;38352;53.244;6.594;2023-08-08T10:03:02;6.65;;;1.52;;
52432;SDS011;38352;53.244;6.594;2023-08-08T10:05:31;4.55;;;1.10;;
52432;SDS011;38352;53.244;6.594;2023-08-08T10:08:03;4.25;;;1.05;;
52432;SDS011;38352;53.244;6.594;2023-08-08T10:10:33;4.50;;;1.15;;
52432;SDS011;38352;53.244;6.594;2023-08-08T10:13:20;3.20;;;1.10;;
52432;SDS011;38352;53.244;6.594;2023-08-08T10:15:47;5.50;;;1.15;;
52432;SDS011;38352;53.244;6.594;2023-08-08T10:18:16;5.45;;;1.05;;
52432;SDS011;38352;53.244;6.594;2023-08-08T10:20:43;4.38;;;1.30;;
52432;SDS011;38352;53.244;6.594;2023-08-08T10:23:35;5.50;;;1.38;;
52432;SDS011;38352;53.244;6.594;2023-08-08T10:26:17;4.88;;;1.58;;
52432;SDS011;38352;53.244;6.594;2023-08-08T10:29:17;7.53;;;1.48;;
52432;SDS011;38352;53.244;6.594;2023-08-08T10:34:54;10.63;;;1.80;;
52432;SDS011;38352;53.244;6.594;2023-08-08T10:37:28;8.68;;;1.90;;
52432;SDS011;38352;53.244;6.594;2023-08-08T10:40:05;7.40;;;1.60;;
52432;SDS011;38352;53.244;6.594;2023-08-08T10:42:45;6.45;;;1.40;;
52432;SDS011;38352;53.244;6.594;2023-08-08T10:45:12;6.40;;;1.70;;
52432;SDS011;38352;53.244;6.594;2023-08-08T10:47:39;4.00;;;1.15;;
52432;SDS011;38352;53.244;6.594;2023-08-08T10:50:06;5.63;;;1.30;;
52432;SDS011;38352;53.244;6.594;2023-08-08T10:52:50;6.00;;;1.45;;
52432;SDS011;38352;53.244;6.594;2023-08-08T10:55:23;5.15;;;1.23;;
52432;SDS011;38352;53.244;6.594;2023-08-08T11:00:24;4.72;;;1.27;;
52432;SDS011;38352;53.244;6.594;2023-08-08T11:02:51;4.80;;;1.00;;
52432;SDS011;38352;53.244;6.594;2023-08-08T11:05:17;3.17;;;1.40;;
52432;SDS011;38352;53.244;6.594;2023-08-08T11:07:44;4.82;;;1.20;;
52432;SDS011;38352;53.244;6.594;2023-08-08T11:10:10;5.57;;;1.25;;
52432;SDS011;38352;53.244;6.594;2023-08-08T11:12:37;7.90;;;1.63;;
52432;SDS011;38352;53.244;6.594;2023-08-08T11:15:03;3.17;;;1.00;;
52432;SDS011;38352;53.244;6.594;2023-08-08T11:17:30;6.78;;;1.25;;
52432;SDS011;38352;53.244;6.594;2023-08-08T11:19:56;9.98;;;1.50;;
52432;SDS011;38352;53.244;6.594;2023-08-08T11:22:22;1.60;;;0.80;;
52432;SDS011;38352;53.244;6.594;2023-08-08T11:24:48;3.95;;;1.13;;
52432;SDS011;38352;53.244;6.594;2023-08-08T11:27:15;4.60;;;1.02;;
52432;SDS011;38352;53.244;6.594;2023-08-08T11:29:51;3.38;;;1.48;;
52432;SDS011;38352;53.244;6.594;2023-08-08T11:32:17;6.00;;;1.38;;
52432;SDS011;38352;53.244;6.594;2023-08-08T11:34:43;3.80;;;1.00;;
52432;SDS011;38352;53.244;6.594;2023-08-08T11:37:09;6.50;;;1.35;;
52432;SDS011;38352;53.244;6.594;2023-08-08T11:39:37;4.30;;;1.15;;
52432;SDS011;38352;53.244;6.594;2023-08-08T11:42:03;3.85;;;1.45;;
52432;SDS011;38352;53.244;6.594;2023-08-08T11:44:30;2.88;;;0.82;;
52432;SDS011;38352;53.244;6.594;2023-08-08T11:46:59;3.50;;;1.00;;
52432;SDS011;38352;53.244;6.594;2023-08-08T11:49:25;3.67;;;1.00;;
52432;SDS011;38352;53.244;6.594;2023-08-08T11:51:53;3.28;;;0.85;;
52432;SDS011;38352;53.244;6.594;2023-08-08T11:54:26;4.88;;;1.10;;
52432;SDS011;38352;53.244;6.594;2023-08-08T11:56:53;2.90;;;1.02;;
52432;SDS011;38352;53.244;6.594;2023-08-08T11:59:19;4.53;;;1.55;;
52432;SDS011;38352;53.244;6.594;2023-08-08T12:01:45;6.03;;;1.38;;
52432;SDS011;38352;53.244;6.594;2023-08-08T12:04:11;4.93;;;0.98;;
52432;SDS011;38352;53.244;6.594;2023-08-08T12:06:38;5.43;;;1.23;;
52432;SDS011;38352;53.244;6.594;2023-08-08T12:09:04;2.95;;;1.10;;
52432;SDS011;38352;53.244;6.594;2023-08-08T12:11:34;7.68;;;1.00;;
52432;SDS011;38352;53.244;6.594;2023-08-08T12:14:01;2.95;;;1.10;;
52432;SDS011;38352;53.244;6.594;2023-08-08T12:16:27;5.95;;;1.23;;
52432;SDS011;38352;53.244;6.594;2023-08-08T12:18:56;6.85;;;1.48;;
52432;SDS011;38352;53.244;6.594;2023-08-08T12:21:22;7.20;;;1.70;;
52432;SDS011;38352;53.244;6.594;2023-08-08T12:23:48;7.03;;;1.40;;
52432;SDS011;38352;53.244;6.594;2023-08-08T12:26:17;8.70;;;1.90;;
52432;SDS011;38352;53.244;6.594;2023-08-08T12:28:44;10.35;;;2.08;;
52432;SDS011;38352;53.244;6.594;2023-08-08T12:31:10;4.65;;;1.88;;
52432;SDS011;38352;53.244;6.594;2023-08-08T12:33:36;5.72;;;1.50;;
52432;SDS011;38352;53.244;6.594;2023-08-08T12:36:02;4.63;;;1.30;;
52432;SDS011;38352;53.244;6.594;2023-08-08T12:38:29;4.00;;;1.70;;
52432;SDS011;38352;53.244;6.594;2023-08-08T12:40:55;3.58;;;1.15;;
52432;SDS011;38352;53.244;6.594;2023-08-08T12:43:21;5.53;;;1.10;;
52432;SDS011;38352;53.244;6.594;2023-08-08T12:45:48;6.35;;;1.60;;
52432;SDS011;38352;53.244;6.594;2023-08-08T12:48:14;6.72;;;1.50;;
52432;SDS011;38352;53.244;6.594;2023-08-08T12:50:40;6.20;;;1.60;;
52432;SDS011;38352;53.244;6.594;2023-08-08T12:53:06;6.63;;;1.60;;
52432;SDS011;38352;53.244;6.594;2023-08-08T12:55:33;6.43;;;1.20;;
52432;SDS011;38352;53.244;6.594;2023-08-08T12:57:59;5.07;;;1.30;;
52432;SDS011;38352;53.244;6.594;2023-08-08T13:00:25;6.82;;;1.27;;
52432;SDS011;38352;53.244;6.594;2023-08-08T13:02:51;6.30;;;1.52;;
52432;SDS011;38352;53.244;6.594;2023-08-08T13:05:17;4.90;;;1.48;;
52432;SDS011;38352;53.244;6.594;2023-08-08T13:07:43;5.80;;;1.27;;
52432;SDS011;38352;53.244;6.594;2023-08-08T13:10:12;5.30;;;1.40;;
52432;SDS011;38352;53.244;6.594;2023-08-08T13:12:38;4.65;;;1.25;;
52432;SDS011;38352;53.244;6.594;2023-08-08T13:15:08;7.40;;;1.83;;
52432;SDS011;38352;53.244;6.594;2023-08-08T13:17:34;4.38;;;1.60;;
52432;SDS011;38352;53.244;6.594;2023-08-08T13:20:04;6.18;;;1.50;;
52432;SDS011;38352;53.244;6.594;2023-08-08T13:22:32;5.88;;;1.35;;
52432;SDS011;38352;53.244;6.594;2023-08-08T13:24:59;4.65;;;1.23;;
52432;SDS011;38352;53.244;6.594;2023-08-08T13:27:28;2.78;;;1.20;;
52432;SDS011;38352;53.244;6.594;2023-08-08T13:29:54;6.18;;;1.33;;
52432;SDS011;38352;53.244;6.594;2023-08-08T13:32:20;3.70;;;1.13;;
52432;SDS011;38352;53.244;6.594;2023-08-08T13:34:46;4.93;;;1.25;;
52432;SDS011;38352;53.244;6.594;2023-08-08T13:37:12;5.55;;;1.30;;
52432;SDS011;38352;53.244;6.594;2023-08-08T13:39:39;4.40;;;1.30;;
52432;SDS011;38352;53.244;6.594;2023-08-08T13:42:05;4.45;;;1.13;;
52432;SDS011;38352;53.244;6.594;2023-08-08T13:44:34;7.80;;;1.58;;
52432;SDS011;38352;53.244;6.594;2023-08-08T13:47:01;7.13;;;1.42;;
52432;SDS011;38352;53.244;6.594;2023-08-08T13:49:27;5.43;;;0.93;;
52432;SDS011;38352;53.244;6.594;2023-08-08T13:51:53;5.32;;;1.20;;
52432;SDS011;38352;53.244;6.594;2023-08-08T13:54:19;4.93;;;1.63;;
52432;SDS011;38352;53.244;6.594;2023-08-08T13:56:46;3.72;;;1.10;;
52432;SDS011;38352;53.244;6.594;2023-08-08T13:59:12;4.70;;;1.15;;
52432;SDS011;38352;53.244;6.594;2023-08-08T14:01:45;4.63;;;1.30;;
52432;SDS011;38352;53.244;6.594;2023-08-08T14:04:11;5.80;;;1.15;;
52432;SDS011;38352;53.244;6.594;2023-08-08T14:06:37;4.35;;;1.40;;
52432;SDS011;38352;53.244;6.594;2023-08-08T14:09:03;8.07;;;1.30;;
52432;SDS011;38352;53.244;6.594;2023-08-08T14:11:29;6.80;;;1.55;;
52432;SDS011;38352;53.244;6.594;2023-08-08T14:13:56;7.40;;;1.88;;
52432;SDS011;38352;53.244;6.594;2023-08-08T14:16:23;5.05;;;1.98;;
52432;SDS011;38352;53.244;6.594;2023-08-08T14:18:49;5.40;;;1.20;;
52432;SDS011;38352;53.244;6.594;2023-08-08T14:21:15;6.05;;;1.05;;
52432;SDS011;38352;53.244;6.594;2023-08-08T14:23:42;4.07;;;1.33;;
52432;SDS011;38352;53.244;6.594;2023-08-08T14:26:09;5.82;;;1.20;;
52432;SDS011;38352;53.244;6.594;2023-08-08T14:28:36;6.32;;;1.70;;
52432;SDS011;38352;53.244;6.594;2023-08-08T14:31:02;6.25;;;1.60;;
52432;SDS011;38352;53.244;6.594;2023-08-08T14:33:31;8.27;;;1.40;;
52432;SDS011;38352;53.244;6.594;2023-08-08T14:36:00;3.88;;;1.08;;
52432;SDS011;38352;53.244;6.594;2023-08-08T14:38:33;5.72;;;1.42;;
52432;SDS011;38352;53.244;6.594;2023-08-08T14:41:00;4.82;;;1.33;;
52432;SDS011;38352;53.244;6.594;2023-08-08T14:43:26;4.90;;;1.40;;
52432;SDS011;38352;53.244;6.594;2023-08-08T14:45:55;4.63;;;1.00;;
52432;SDS011;38352;53.244;6.594;2023-08-08T14:48:21;7.22;;;1.20;;
52432;SDS011;38352;53.244;6.594;2023-08-08T14:50:48;8.02;;;1.40;;
52432;SDS011;38352;53.244;6.594;2023-08-08T14:53:14;4.75;;;1.15;;
52432;SDS011;38352;53.244;6.594;2023-08-08T14:55:41;2.70;;;0.82;;
52432;SDS011;38352;53.244;6.594;2023-08-08T14:58:07;3.80;;;1.35;;
52432;SDS011;38352;53.244;6.594;2023-08-08T15:00:33;3.88;;;1.00;;
52432;SDS011;38352;53.244;6.594;2023-08-08T15:03:02;5.13;;;1.25;;